sensor_id;sensor_type;location;lat;lon;timestamp;temperature;humidity
8436;DHT22;4255;48.730;9.156;2023-04-02T00:01:43;8.70;99.90
8436;DHT22;4255;48.730;9.156;2023-04-02T00:04:20;8.80;99.90
8436;DHT22;4255;48.730;9.156;2023-04-02T00:06:49;8.90;99.90
8436;DHT22;4255;48.730;9.156;2023-04-02T00:09:25;8.70;99.90
8436;DHT22;4255;48.730;9.156;2023-04-02T00:11:53;8.60;99.90
8436;DHT22;4255;48.730;9.156;2023-04-02T00:16:52;8.30;99.90
8436;DHT22;4255;48.730;9.156;2023-04-02T00:19:35;8.30;99.90
8436;DHT22;4255;48.730;9.156;2023-04-02T00:22:06;8.30;99.90
8436;DHT22;4255;48.730;9.156;2023-04-02T00:24:33;8.40;99.90
8436;DHT22;4255;48.730;9.156;2023-04-02T00:26:59;8.30;99.90
8436;DHT22;4255;48.730;9.156;2023-04-02T00:29:25;8.20;99.90
8436;DHT22;4255;48.730;9.156;2023-04-02T00:31:52;8.30;99.90
8436;DHT22;4255;48.730;9.156;2023-04-02T00:36:47;8.40;99.90
8436;DHT22;4255;48.730;9.156;2023-04-02T00:39:25;8.40;99.90
8436;DHT22;4255;48.730;9.156;2023-04-02T00:41:56;8.50;99.90
8436;DHT22;4255;48.730;9.156;2023-04-02T00:44:35;8.30;99.90
8436;DHT22;4255;48.730;9.156;2023-04-02T00:47:16;8.30;99.90
8436;DHT22;4255;48.730;9.156;2023-04-02T00:49:43;8.40;99.90
8436;DHT22;4255;48.730;9.156;2023-04-02T00:52:14;8.60;99.90
8436;DHT22;4255;48.730;9.156;2023-04-02T00:55:08;8.50;99.90
8436;DHT22;4255;48.730;9.156;2023-04-02T00:57:41;8.60;99.90
8436;DHT22;4255;48.730;9.156;2023-04-02T01:02:40;8.70;99.90
8436;DHT22;4255;48.730;9.156;2023-04-02T01:08:12;8.70;99.90
8436;DHT22;4255;48.730;9.156;2023-04-02T01:22:14;8.70;99.90
8436;DHT22;4255;48.730;9.156;2023-04-02T01:24:42;8.80;99.90
8436;DHT22;4255;48.730;9.156;2023-04-02T01:27:25;8.90;99.90
8436;DHT22;4255;48.730;9.156;2023-04-02T01:29:55;9.00;99.90
8436;DHT22;4255;48.730;9.156;2023-04-02T01:32:23;9.10;99.90
8436;DHT22;4255;48.730;9.156;2023-04-02T01:34:51;9.10;99.90
8436;DHT22;4255;48.730;9.156;2023-04-02T01:37:32;9.20;99.90
8436;DHT22;4255;48.730;9.156;2023-04-02T01:46:30;9.10;99.90
8436;DHT22;4255;48.730;9.156;2023-04-02T01:48:59;9.20;99.90
8436;DHT22;4255;48.730;9.156;2023-04-02T01:51:31;9.20;99.90
8436;DHT22;4255;48.730;9.156;2023-04-02T01:54:00;9.20;99.90
8436;DHT22;4255;48.730;9.156;2023-04-02T01:56:27;9.20;99.90
8436;DHT22;4255;48.730;9.156;2023-04-02T01:58:53;9.10;99.90
8436;DHT22;4255;48.730;9.156;2023-04-02T02:01:22;9.00;99.90
8436;DHT22;4255;48.730;9.156;2023-04-02T02:03:49;9.00;99.90
8436;DHT22;4255;48.730;9.156;2023-04-02T02:06:17;8.90;99.90
8436;DHT22;4255;48.730;9.156;2023-04-02T02:08:59;8.90;99.90
8436;DHT22;4255;48.730;9.156;2023-04-02T02:11:29;8.90;99.90
8436;DHT22;4255;48.730;9.156;2023-04-02T02:14:04;9.00;99.90
8436;DHT22;4255;48.730;9.156;2023-04-02T02:16:31;9.10;99.90
8436;DHT22;4255;48.730;9.156;2023-04-02T02:19:06;9.00;99.90
8436;DHT22;4255;48.730;9.156;2023-04-02T02:21:41;9.00;99.90
8436;DHT22;4255;48.730;9.156;2023-04-02T02:24:24;8.80;99.90
8436;DHT22;4255;48.730;9.156;2023-04-02T02:29:39;8.70;99.90
8436;DHT22;4255;48.730;9.156;2023-04-02T02:32:06;8.80;99.90
8436;DHT22;4255;48.730;9.156;2023-04-02T02:34:41;8.90;99.90
8436;DHT22;4255;48.730;9.156;2023-04-02T02:37:23;9.00;99.90
8436;DHT22;4255;48.730;9.156;2023-04-02T02:39:53;9.10;99.90
8436;DHT22;4255;48.730;9.156;2023-04-02T02:42:35;9.00;99.90
8436;DHT22;4255;48.730;9.156;2023-04-02T02:45:09;9.00;99.90
8436;DHT22;4255;48.730;9.156;2023-04-02T02:47:39;9.20;99.90
8436;DHT22;4255;48.730;9.156;2023-04-02T02:50:10;9.20;99.90
8436;DHT22;4255;48.730;9.156;2023-04-02T02:52:38;9.20;99.90
8436;DHT22;4255;48.730;9.156;2023-04-02T02:55:15;9.30;99.90
8436;DHT22;4255;48.730;9.156;2023-04-02T02:58:06;9.40;99.90
8436;DHT22;4255;48.730;9.156;2023-04-02T03:00:35;9.50;99.90
8436;DHT22;4255;48.730;9.156;2023-04-02T03:03:04;9.60;99.90
8436;DHT22;4255;48.730;9.156;2023-04-02T03:05:32;9.60;99.90
8436;DHT22;4255;48.730;9.156;2023-04-02T03:07:59;9.60;99.90
8436;DHT22;4255;48.730;9.156;2023-04-02T03:11:20;9.70;99.90
8436;DHT22;4255;48.730;9.156;2023-04-02T03:13:31;9.80;99.90
8436;DHT22;4255;48.730;9.156;2023-04-02T03:19:19;9.80;99.90
8436;DHT22;4255;48.730;9.156;2023-04-02T03:24:57;9.60;99.90
8436;DHT22;4255;48.730;9.156;2023-04-02T03:27:33;9.50;99.90
8436;DHT22;4255;48.730;9.156;2023-04-02T03:32:46;9.70;99.90
8436;DHT22;4255;48.730;9.156;2023-04-02T03:35:37;9.80;99.90
8436;DHT22;4255;48.730;9.156;2023-04-02T03:38:30;9.80;99.90
8436;DHT22;4255;48.730;9.156;2023-04-02T03:41:10;9.70;99.90
8436;DHT22;4255;48.730;9.156;2023-04-02T03:43:44;9.70;99.90
8436;DHT22;4255;48.730;9.156;2023-04-02T03:46:21;9.70;99.90
8436;DHT22;4255;48.730;9.156;2023-04-02T03:48:55;9.90;99.90
8436;DHT22;4255;48.730;9.156;2023-04-02T03:51:29;9.80;99.90
8436;DHT22;4255;48.730;9.156;2023-04-02T03:53:57;9.80;99.90
8436;DHT22;4255;48.730;9.156;2023-04-02T03:56:29;9.90;99.90
8436;DHT22;4255;48.730;9.156;2023-04-02T04:01:55;10.10;99.90
8436;DHT22;4255;48.730;9.156;2023-04-02T04:04:25;10.20;99.90
8436;DHT22;4255;48.730;9.156;2023-04-02T04:06:52;10.10;99.90
8436;DHT22;4255;48.730;9.156;2023-04-02T04:09:36;10.00;99.90
8436;DHT22;4255;48.730;9.156;2023-04-02T04:14:43;9.80;99.90
8436;DHT22;4255;48.730;9.156;2023-04-02T04:18:21;9.80;99.90
8436;DHT22;4255;48.730;9.156;2023-04-02T04:22:41;9.50;99.90
8436;DHT22;4255;48.730;9.156;2023-04-02T04:25:22;9.50;99.90
8436;DHT22;4255;48.730;9.156;2023-04-02T04:30:57;9.70;99.90
8436;DHT22;4255;48.730;9.156;2023-04-02T04:33:33;9.70;99.90
8436;DHT22;4255;48.730;9.156;2023-04-02T04:36:05;9.70;99.90
8436;DHT22;4255;48.730;9.156;2023-04-02T04:38:46;9.80;99.90
8436;DHT22;4255;48.730;9.156;2023-04-02T04:41:32;9.80;99.90
8436;DHT22;4255;48.730;9.156;2023-04-02T04:44:22;9.80;99.90
8436;DHT22;4255;48.730;9.156;2023-04-02T04:49:30;9.60;99.90
8436;DHT22;4255;48.730;9.156;2023-04-02T04:54:25;9.80;99.90
8436;DHT22;4255;48.730;9.156;2023-04-02T04:56:56;9.70;99.90
8436;DHT22;4255;48.730;9.156;2023-04-02T04:59:28;9.60;99.90
8436;DHT22;4255;48.730;9.156;2023-04-02T05:02:18;9.30;99.90
8436;DHT22;4255;48.730;9.156;2023-04-02T05:04:49;9.30;99.90
8436;DHT22;4255;48.730;9.156;2023-04-02T05:07:26;9.20;99.90
8436;DHT22;4255;48.730;9.156;2023-04-02T05:09:57;9.30;99.90
8436;DHT22;4255;48.730;9.156;2023-04-02T05:12:44;9.30;99.90
8436;DHT22;4255;48.730;9.156;2023-04-02T05:15:17;9.30;99.90
8436;DHT22;4255;48.730;9.156;2023-04-02T05:22:58;9.30;99.90
8436;DHT22;4255;48.730;9.156;2023-04-02T05:25:29;9.30;99.90
8436;DHT22;4255;48.730;9.156;2023-04-02T05:30:46;9.30;99.90
8436;DHT22;4255;48.730;9.156;2023-04-02T05:33:23;9.40;99.90
8436;DHT22;4255;48.730;9.156;2023-04-02T05:35:54;9.30;99.90
8436;DHT22;4255;48.730;9.156;2023-04-02T05:38:27;9.30;99.90
8436;DHT22;4255;48.730;9.156;2023-04-02T05:41:03;9.40;99.90
8436;DHT22;4255;48.730;9.156;2023-04-02T05:43:32;9.50;99.90
8436;DHT22;4255;48.730;9.156;2023-04-02T05:46:02;9.50;99.90
8436;DHT22;4255;48.730;9.156;2023-04-02T05:48:38;9.40;99.90
8436;DHT22;4255;48.730;9.156;2023-04-02T05:51:08;9.40;99.90
8436;DHT22;4255;48.730;9.156;2023-04-02T05:53:36;9.50;99.90
8436;DHT22;4255;48.730;9.156;2023-04-02T05:56:06;9.50;99.90
8436;DHT22;4255;48.730;9.156;2023-04-02T06:07:03;9.80;99.90
8436;DHT22;4255;48.730;9.156;2023-04-02T06:12:32;10.00;99.90
8436;DHT22;4255;48.730;9.156;2023-04-02T06:15:00;9.90;99.90
8436;DHT22;4255;48.730;9.156;2023-04-02T06:17:26;9.80;99.90
8436;DHT22;4255;48.730;9.156;2023-04-02T06:19:53;9.80;99.90
8436;DHT22;4255;48.730;9.156;2023-04-02T06:22:26;9.70;99.90
8436;DHT22;4255;48.730;9.156;2023-04-02T06:27:30;9.80;99.90
8436;DHT22;4255;48.730;9.156;2023-04-02T06:30:01;10.00;99.90
8436;DHT22;4255;48.730;9.156;2023-04-02T06:32:27;9.90;99.90
8436;DHT22;4255;48.730;9.156;2023-04-02T06:34:53;10.10;99.90
8436;DHT22;4255;48.730;9.156;2023-04-02T06:37:37;10.10;99.90
8436;DHT22;4255;48.730;9.156;2023-04-02T06:40:25;10.10;99.90
8436;DHT22;4255;48.730;9.156;2023-04-02T06:42:51;10.20;99.90
8436;DHT22;4255;48.730;9.156;2023-04-02T06:45:26;10.20;99.90
8436;DHT22;4255;48.730;9.156;2023-04-02T06:47:54;10.20;99.90
8436;DHT22;4255;48.730;9.156;2023-04-02T06:52:57;10.30;99.90
8436;DHT22;4255;48.730;9.156;2023-04-02T06:55:46;10.50;99.90
8436;DHT22;4255;48.730;9.156;2023-04-02T06:58:17;10.70;99.90
8436;DHT22;4255;48.730;9.156;2023-04-02T07:00:45;10.90;99.90
8436;DHT22;4255;48.730;9.156;2023-04-02T07:03:25;11.00;99.90
8436;DHT22;4255;48.730;9.156;2023-04-02T07:05:52;11.10;99.90
8436;DHT22;4255;48.730;9.156;2023-04-02T07:08:18;11.20;99.90
8436;DHT22;4255;48.730;9.156;2023-04-02T07:10:44;11.20;99.90
8436;DHT22;4255;48.730;9.156;2023-04-02T07:13:14;11.40;99.90
8436;DHT22;4255;48.730;9.156;2023-04-02T07:15:41;11.50;99.90
8436;DHT22;4255;48.730;9.156;2023-04-02T07:18:29;11.70;99.90
8436;DHT22;4255;48.730;9.156;2023-04-02T07:20:55;11.70;99.90
8436;DHT22;4255;48.730;9.156;2023-04-02T07:23:21;11.80;99.90
8436;DHT22;4255;48.730;9.156;2023-04-02T07:25:52;11.80;99.90
8436;DHT22;4255;48.730;9.156;2023-04-02T07:28:18;11.90;99.90
8436;DHT22;4255;48.730;9.156;2023-04-02T07:30:44;12.00;99.90
8436;DHT22;4255;48.730;9.156;2023-04-02T07:33:14;11.90;99.90
8436;DHT22;4255;48.730;9.156;2023-04-02T07:35:41;11.90;99.90
8436;DHT22;4255;48.730;9.156;2023-04-02T07:38:06;11.90;99.90
8436;DHT22;4255;48.730;9.156;2023-04-02T07:40:32;11.90;99.90
8436;DHT22;4255;48.730;9.156;2023-04-02T07:42:58;11.60;99.90
8436;DHT22;4255;48.730;9.156;2023-04-02T07:45:24;11.70;99.90
8436;DHT22;4255;48.730;9.156;2023-04-02T07:47:50;11.60;99.90
8436;DHT22;4255;48.730;9.156;2023-04-02T07:50:16;11.60;99.90
8436;DHT22;4255;48.730;9.156;2023-04-02T07:52:42;11.60;99.90
8436;DHT22;4255;48.730;9.156;2023-04-02T07:55:13;11.60;99.90
8436;DHT22;4255;48.730;9.156;2023-04-02T07:57:49;11.60;99.90
8436;DHT22;4255;48.730;9.156;2023-04-02T08:00:16;11.60;99.90
8436;DHT22;4255;48.730;9.156;2023-04-02T08:02:42;11.50;99.90
8436;DHT22;4255;48.730;9.156;2023-04-02T08:05:08;11.60;99.90
8436;DHT22;4255;48.730;9.156;2023-04-02T08:07:35;11.70;99.90
8436;DHT22;4255;48.730;9.156;2023-04-02T08:10:02;11.70;99.90
8436;DHT22;4255;48.730;9.156;2023-04-02T08:12:27;11.80;99.90
8436;DHT22;4255;48.730;9.156;2023-04-02T08:14:53;11.70;99.90
8436;DHT22;4255;48.730;9.156;2023-04-02T08:17:18;11.70;99.90
8436;DHT22;4255;48.730;9.156;2023-04-02T08:19:44;11.80;99.90
8436;DHT22;4255;48.730;9.156;2023-04-02T08:22:10;11.80;99.90
8436;DHT22;4255;48.730;9.156;2023-04-02T08:24:36;12.00;99.90
8436;DHT22;4255;48.730;9.156;2023-04-02T08:27:01;12.00;99.90
8436;DHT22;4255;48.730;9.156;2023-04-02T08:29:27;12.00;99.90
8436;DHT22;4255;48.730;9.156;2023-04-02T08:32:00;12.10;99.90
8436;DHT22;4255;48.730;9.156;2023-04-02T08:34:26;12.20;99.90
8436;DHT22;4255;48.730;9.156;2023-04-02T08:36:57;12.30;99.90
8436;DHT22;4255;48.730;9.156;2023-04-02T08:39:23;12.30;99.90
8436;DHT22;4255;48.730;9.156;2023-04-02T08:42:02;12.30;99.90
8436;DHT22;4255;48.730;9.156;2023-04-02T08:44:41;12.30;99.90
8436;DHT22;4255;48.730;9.156;2023-04-02T08:47:11;12.50;99.90
8436;DHT22;4255;48.730;9.156;2023-04-02T08:49:47;12.50;99.90
8436;DHT22;4255;48.730;9.156;2023-04-02T08:52:30;12.50;99.90
8436;DHT22;4255;48.730;9.156;2023-04-02T08:54:57;12.50;99.90
8436;DHT22;4255;48.730;9.156;2023-04-02T08:57:38;12.70;99.90
8436;DHT22;4255;48.730;9.156;2023-04-02T09:02:54;12.80;99.90
8436;DHT22;4255;48.730;9.156;2023-04-02T09:05:28;12.90;99.90
8436;DHT22;4255;48.730;9.156;2023-04-02T09:07:55;13.00;99.90
8436;DHT22;4255;48.730;9.156;2023-04-02T09:10:34;13.10;99.90
8436;DHT22;4255;48.730;9.156;2023-04-02T09:13:02;13.00;99.90
8436;DHT22;4255;48.730;9.156;2023-04-02T09:15:34;12.90;99.90
8436;DHT22;4255;48.730;9.156;2023-04-02T09:18:15;12.70;99.90
8436;DHT22;4255;48.730;9.156;2023-04-02T09:20:41;12.60;99.90
8436;DHT22;4255;48.730;9.156;2023-04-02T09:23:17;12.40;99.90
8436;DHT22;4255;48.730;9.156;2023-04-02T09:25:47;12.20;99.90
8436;DHT22;4255;48.730;9.156;2023-04-02T09:28:14;12.10;99.90
8436;DHT22;4255;48.730;9.156;2023-04-02T09:33:46;11.90;99.90
8436;DHT22;4255;48.730;9.156;2023-04-02T09:36:25;12.10;99.90
8436;DHT22;4255;48.730;9.156;2023-04-02T09:39:01;11.80;99.90
8436;DHT22;4255;48.730;9.156;2023-04-02T09:41:32;11.70;99.90
8436;DHT22;4255;48.730;9.156;2023-04-02T09:44:20;11.80;99.90
8436;DHT22;4255;48.730;9.156;2023-04-02T09:46:57;11.80;99.90
8436;DHT22;4255;48.730;9.156;2023-04-02T09:49:26;11.80;99.90
8436;DHT22;4255;48.730;9.156;2023-04-02T09:54:30;11.70;99.90
8436;DHT22;4255;48.730;9.156;2023-04-02T09:57:01;11.70;99.90
8436;DHT22;4255;48.730;9.156;2023-04-02T09:59:27;11.60;99.90
8436;DHT22;4255;48.730;9.156;2023-04-02T10:04:44;11.70;99.90
8436;DHT22;4255;48.730;9.156;2023-04-02T10:09:58;11.50;99.90
8436;DHT22;4255;48.730;9.156;2023-04-02T10:12:25;11.30;99.90
8436;DHT22;4255;48.730;9.156;2023-04-02T10:14:53;11.10;99.90
8436;DHT22;4255;48.730;9.156;2023-04-02T10:17:25;11.00;99.90
8436;DHT22;4255;48.730;9.156;2023-04-02T10:20:22;11.00;99.90
8436;DHT22;4255;48.730;9.156;2023-04-02T10:22:47;11.20;99.90
8436;DHT22;4255;48.730;9.156;2023-04-02T10:25:16;11.10;99.90
8436;DHT22;4255;48.730;9.156;2023-04-02T10:33:02;11.60;99.90
8436;DHT22;4255;48.730;9.156;2023-04-02T10:35:46;11.90;99.90
8436;DHT22;4255;48.730;9.156;2023-04-02T10:38:23;12.00;99.90
8436;DHT22;4255;48.730;9.156;2023-04-02T10:52:00;12.30;99.90
8436;DHT22;4255;48.730;9.156;2023-04-02T10:54:56;12.30;99.90
8436;DHT22;4255;48.730;9.156;2023-04-02T10:57:36;12.40;99.90
8436;DHT22;4255;48.730;9.156;2023-04-02T11:00:12;12.50;99.90
8436;DHT22;4255;48.730;9.156;2023-04-02T11:05:49;12.40;99.90
8436;DHT22;4255;48.730;9.156;2023-04-02T11:16:24;12.60;99.90
8436;DHT22;4255;48.730;9.156;2023-04-02T11:22:04;12.60;99.90
8436;DHT22;4255;48.730;9.156;2023-04-02T11:24:46;12.60;99.90
8436;DHT22;4255;48.730;9.156;2023-04-02T11:27:32;12.70;99.90
8436;DHT22;4255;48.730;9.156;2023-04-02T11:34:57;12.90;99.90
8436;DHT22;4255;48.730;9.156;2023-04-02T11:37:41;12.70;99.90
8436;DHT22;4255;48.730;9.156;2023-04-02T11:42:41;12.90;99.90
8436;DHT22;4255;48.730;9.156;2023-04-02T11:50:37;13.10;99.90
8436;DHT22;4255;48.730;9.156;2023-04-02T11:55:41;13.20;99.90
8436;DHT22;4255;48.730;9.156;2023-04-02T12:09:43;13.00;99.90
8436;DHT22;4255;48.730;9.156;2023-04-02T12:12:37;13.10;99.90
8436;DHT22;4255;48.730;9.156;2023-04-02T12:15:32;13.30;99.90
8436;DHT22;4255;48.730;9.156;2023-04-02T12:18:24;13.30;99.90
8436;DHT22;4255;48.730;9.156;2023-04-02T12:20:55;13.60;99.90
8436;DHT22;4255;48.730;9.156;2023-04-02T12:23:25;13.60;99.90
8436;DHT22;4255;48.730;9.156;2023-04-02T12:26:06;13.90;99.90
8436;DHT22;4255;48.730;9.156;2023-04-02T12:28:32;14.20;99.90
8436;DHT22;4255;48.730;9.156;2023-04-02T12:33:38;14.10;99.90
8436;DHT22;4255;48.730;9.156;2023-04-02T12:36:06;14.10;99.90
8436;DHT22;4255;48.730;9.156;2023-04-02T12:38:53;14.00;99.90
8436;DHT22;4255;48.730;9.156;2023-04-02T12:44:03;14.60;99.90
8436;DHT22;4255;48.730;9.156;2023-04-02T12:46:30;14.40;99.90
8436;DHT22;4255;48.730;9.156;2023-04-02T12:52:03;14.00;99.90
8436;DHT22;4255;48.730;9.156;2023-04-02T12:54:33;14.20;99.90
8436;DHT22;4255;48.730;9.156;2023-04-02T12:57:38;14.00;99.90
8436;DHT22;4255;48.730;9.156;2023-04-02T13:02:48;14.30;99.90
8436;DHT22;4255;48.730;9.156;2023-04-02T13:05:40;14.60;99.90
8436;DHT22;4255;48.730;9.156;2023-04-02T13:08:38;14.90;99.90
8436;DHT22;4255;48.730;9.156;2023-04-02T13:11:05;14.80;99.90
8436;DHT22;4255;48.730;9.156;2023-04-02T13:13:36;14.50;99.90
8436;DHT22;4255;48.730;9.156;2023-04-02T13:18:32;14.40;99.90
8436;DHT22;4255;48.730;9.156;2023-04-02T13:21:45;14.30;99.90
8436;DHT22;4255;48.730;9.156;2023-04-02T13:23:54;13.90;99.90
8436;DHT22;4255;48.730;9.156;2023-04-02T13:29:18;13.60;99.90
8436;DHT22;4255;48.730;9.156;2023-04-02T13:31:43;13.40;99.90
8436;DHT22;4255;48.730;9.156;2023-04-02T13:34:09;13.50;99.90
8436;DHT22;4255;48.730;9.156;2023-04-02T13:36:35;13.20;99.90
8436;DHT22;4255;48.730;9.156;2023-04-02T13:39:02;13.10;99.90
8436;DHT22;4255;48.730;9.156;2023-04-02T13:41:31;12.80;99.90
8436;DHT22;4255;48.730;9.156;2023-04-02T13:44:00;12.90;99.90
8436;DHT22;4255;48.730;9.156;2023-04-02T13:46:29;12.70;99.90
8436;DHT22;4255;48.730;9.156;2023-04-02T13:48:56;12.70;99.90
8436;DHT22;4255;48.730;9.156;2023-04-02T13:51:27;12.40;99.90
8436;DHT22;4255;48.730;9.156;2023-04-02T13:53:56;12.40;99.90
8436;DHT22;4255;48.730;9.156;2023-04-02T13:56:22;11.90;99.90
8436;DHT22;4255;48.730;9.156;2023-04-02T13:58:52;11.40;99.90
8436;DHT22;4255;48.730;9.156;2023-04-02T14:01:20;11.30;99.90
8436;DHT22;4255;48.730;9.156;2023-04-02T14:03:47;11.20;99.90
8436;DHT22;4255;48.730;9.156;2023-04-02T14:09:04;11.20;99.90
8436;DHT22;4255;48.730;9.156;2023-04-02T14:17:26;10.40;99.90
8436;DHT22;4255;48.730;9.156;2023-04-02T14:25:31;10.30;99.90
8436;DHT22;4255;48.730;9.156;2023-04-02T14:36:34;10.40;99.90
8436;DHT22;4255;48.730;9.156;2023-04-02T14:44:06;10.70;99.90
8436;DHT22;4255;48.730;9.156;2023-04-02T14:46:36;10.60;99.90
8436;DHT22;4255;48.730;9.156;2023-04-02T14:49:16;10.30;99.90
8436;DHT22;4255;48.730;9.156;2023-04-02T14:51:48;10.20;99.90
8436;DHT22;4255;48.730;9.156;2023-04-02T14:54:34;10.30;99.90
8436;DHT22;4255;48.730;9.156;2023-04-02T14:57:19;10.10;99.90
8436;DHT22;4255;48.730;9.156;2023-04-02T15:00:09;9.90;99.90
8436;DHT22;4255;48.730;9.156;2023-04-02T15:03:17;10.00;99.90
8436;DHT22;4255;48.730;9.156;2023-04-02T15:05:49;10.10;99.90
8436;DHT22;4255;48.730;9.156;2023-04-02T15:08:26;10.00;99.90
8436;DHT22;4255;48.730;9.156;2023-04-02T15:11:00;10.10;99.90
8436;DHT22;4255;48.730;9.156;2023-04-02T15:13:35;10.20;99.90
8436;DHT22;4255;48.730;9.156;2023-04-02T15:16:08;9.90;99.90
8436;DHT22;4255;48.730;9.156;2023-04-02T15:18:35;9.90;99.90
8436;DHT22;4255;48.730;9.156;2023-04-02T15:26:39;9.40;99.90
8436;DHT22;4255;48.730;9.156;2023-04-02T15:31:45;9.30;99.90
8436;DHT22;4255;48.730;9.156;2023-04-02T15:34:24;9.30;99.90
8436;DHT22;4255;48.730;9.156;2023-04-02T15:37:06;9.30;99.90
8436;DHT22;4255;48.730;9.156;2023-04-02T15:42:29;9.20;99.90
8436;DHT22;4255;48.730;9.156;2023-04-02T15:45:11;9.20;99.90
8436;DHT22;4255;48.730;9.156;2023-04-02T15:53:29;9.10;99.90
8436;DHT22;4255;48.730;9.156;2023-04-02T15:56:29;9.00;99.90
8436;DHT22;4255;48.730;9.156;2023-04-02T16:05:01;8.80;99.90
8436;DHT22;4255;48.730;9.156;2023-04-02T16:07:39;8.90;99.90
8436;DHT22;4255;48.730;9.156;2023-04-02T16:10:21;8.80;99.90
8436;DHT22;4255;48.730;9.156;2023-04-02T16:12:50;8.60;99.90
8436;DHT22;4255;48.730;9.156;2023-04-02T16:15:21;8.60;99.90
8436;DHT22;4255;48.730;9.156;2023-04-02T16:18:00;8.60;99.90
8436;DHT22;4255;48.730;9.156;2023-04-02T16:20:39;8.40;99.90
8436;DHT22;4255;48.730;9.156;2023-04-02T16:23:12;8.40;99.90
8436;DHT22;4255;48.730;9.156;2023-04-02T16:31:32;8.50;99.90
8436;DHT22;4255;48.730;9.156;2023-04-02T16:51:37;8.20;99.90
8436;DHT22;4255;48.730;9.156;2023-04-02T16:54:13;8.00;99.90
8436;DHT22;4255;48.730;9.156;2023-04-02T17:05:58;7.90;99.90
8436;DHT22;4255;48.730;9.156;2023-04-02T17:08:29;8.00;99.90
8436;DHT22;4255;48.730;9.156;2023-04-02T17:11:00;7.90;99.90
8436;DHT22;4255;48.730;9.156;2023-04-02T17:16:03;7.80;99.90
8436;DHT22;4255;48.730;9.156;2023-04-02T17:18:32;7.80;99.90
8436;DHT22;4255;48.730;9.156;2023-04-02T17:21:02;7.60;99.90
8436;DHT22;4255;48.730;9.156;2023-04-02T17:23:30;7.60;99.90
8436;DHT22;4255;48.730;9.156;2023-04-02T17:26:02;7.70;99.90
8436;DHT22;4255;48.730;9.156;2023-04-02T17:28:32;7.70;99.90
8436;DHT22;4255;48.730;9.156;2023-04-02T17:31:09;7.70;99.90
8436;DHT22;4255;48.730;9.156;2023-04-02T17:33:37;7.60;99.90
8436;DHT22;4255;48.730;9.156;2023-04-02T17:41:18;7.30;99.90
8436;DHT22;4255;48.730;9.156;2023-04-02T17:46:36;7.30;99.90
8436;DHT22;4255;48.730;9.156;2023-04-02T17:49:26;7.20;99.90
8436;DHT22;4255;48.730;9.156;2023-04-02T17:51:59;7.30;99.90
8436;DHT22;4255;48.730;9.156;2023-04-02T18:00:22;7.20;99.90
8436;DHT22;4255;48.730;9.156;2023-04-02T18:05:41;6.90;99.90
8436;DHT22;4255;48.730;9.156;2023-04-02T18:13:58;6.70;99.90
8436;DHT22;4255;48.730;9.156;2023-04-02T18:16:55;6.70;99.90
8436;DHT22;4255;48.730;9.156;2023-04-02T18:19:31;6.70;99.90
8436;DHT22;4255;48.730;9.156;2023-04-02T18:22:01;6.80;99.90
8436;DHT22;4255;48.730;9.156;2023-04-02T18:24:36;6.80;99.90
8436;DHT22;4255;48.730;9.156;2023-04-02T18:35:19;6.60;99.90
8436;DHT22;4255;48.730;9.156;2023-04-02T18:40:42;6.70;99.90
8436;DHT22;4255;48.730;9.156;2023-04-02T18:49:37;6.10;99.90
8436;DHT22;4255;48.730;9.156;2023-04-02T18:52:13;6.20;99.90
8436;DHT22;4255;48.730;9.156;2023-04-02T18:57:13;6.00;99.90
8436;DHT22;4255;48.730;9.156;2023-04-02T19:05:19;5.80;99.90
8436;DHT22;4255;48.730;9.156;2023-04-02T19:07:49;5.80;99.90
8436;DHT22;4255;48.730;9.156;2023-04-02T19:10:42;5.70;99.90
8436;DHT22;4255;48.730;9.156;2023-04-02T19:13:17;5.70;99.90
8436;DHT22;4255;48.730;9.156;2023-04-02T19:18:36;5.60;99.90
8436;DHT22;4255;48.730;9.156;2023-04-02T19:21:19;5.50;99.90
8436;DHT22;4255;48.730;9.156;2023-04-02T19:24:00;5.40;99.90
8436;DHT22;4255;48.730;9.156;2023-04-02T19:26:38;5.30;99.90
8436;DHT22;4255;48.730;9.156;2023-04-02T19:29:23;5.20;99.90
8436;DHT22;4255;48.730;9.156;2023-04-02T19:32:00;5.10;99.90
8436;DHT22;4255;48.730;9.156;2023-04-02T19:34:38;5.10;99.90
8436;DHT22;4255;48.730;9.156;2023-04-02T19:37:13;5.00;99.90
8436;DHT22;4255;48.730;9.156;2023-04-02T19:42:46;5.20;99.90
8436;DHT22;4255;48.730;9.156;2023-04-02T19:47:58;4.90;99.90
8436;DHT22;4255;48.730;9.156;2023-04-02T19:50:24;4.80;99.90
8436;DHT22;4255;48.730;9.156;2023-04-02T19:52:50;4.80;99.90
8436;DHT22;4255;48.730;9.156;2023-04-02T19:55:16;4.80;99.90
8436;DHT22;4255;48.730;9.156;2023-04-02T19:57:41;4.90;99.90
8436;DHT22;4255;48.730;9.156;2023-04-02T20:00:10;4.90;99.90
8436;DHT22;4255;48.730;9.156;2023-04-02T20:02:36;4.80;99.90
8436;DHT22;4255;48.730;9.156;2023-04-02T20:05:02;4.80;99.90
8436;DHT22;4255;48.730;9.156;2023-04-02T20:07:29;4.80;99.90
8436;DHT22;4255;48.730;9.156;2023-04-02T20:09:55;4.70;99.90
8436;DHT22;4255;48.730;9.156;2023-04-02T20:12:20;4.60;99.90
8436;DHT22;4255;48.730;9.156;2023-04-02T20:14:46;4.60;99.90
8436;DHT22;4255;48.730;9.156;2023-04-02T20:17:12;4.50;99.90
8436;DHT22;4255;48.730;9.156;2023-04-02T20:19:37;4.40;99.90
8436;DHT22;4255;48.730;9.156;2023-04-02T20:22:03;4.40;99.90
8436;DHT22;4255;48.730;9.156;2023-04-02T20:24:28;4.30;99.90
8436;DHT22;4255;48.730;9.156;2023-04-02T20:26:54;4.20;99.90
8436;DHT22;4255;48.730;9.156;2023-04-02T20:29:20;4.10;99.90
8436;DHT22;4255;48.730;9.156;2023-04-02T20:31:47;4.20;99.90
8436;DHT22;4255;48.730;9.156;2023-04-02T20:34:13;4.30;99.90
8436;DHT22;4255;48.730;9.156;2023-04-02T20:36:38;4.50;99.90
8436;DHT22;4255;48.730;9.156;2023-04-02T20:39:04;4.30;99.90
8436;DHT22;4255;48.730;9.156;2023-04-02T20:41:32;4.30;99.90
8436;DHT22;4255;48.730;9.156;2023-04-02T20:43:58;4.40;99.90
8436;DHT22;4255;48.730;9.156;2023-04-02T20:46:23;4.50;99.90
8436;DHT22;4255;48.730;9.156;2023-04-02T20:48:49;4.40;99.90
8436;DHT22;4255;48.730;9.156;2023-04-02T20:51:15;4.40;99.90
8436;DHT22;4255;48.730;9.156;2023-04-02T20:53:41;4.40;99.90
8436;DHT22;4255;48.730;9.156;2023-04-02T20:56:13;4.30;99.90
8436;DHT22;4255;48.730;9.156;2023-04-02T20:58:40;4.30;99.90
8436;DHT22;4255;48.730;9.156;2023-04-02T21:01:18;4.30;99.90
8436;DHT22;4255;48.730;9.156;2023-04-02T21:03:44;4.30;99.90
8436;DHT22;4255;48.730;9.156;2023-04-02T21:06:20;4.30;99.90
8436;DHT22;4255;48.730;9.156;2023-04-02T21:08:47;4.20;99.90
8436;DHT22;4255;48.730;9.156;2023-04-02T21:11:13;4.30;99.90
8436;DHT22;4255;48.730;9.156;2023-04-02T21:13:39;4.40;99.90
8436;DHT22;4255;48.730;9.156;2023-04-02T21:16:16;4.30;99.90
8436;DHT22;4255;48.730;9.156;2023-04-02T21:18:44;4.30;99.90
8436;DHT22;4255;48.730;9.156;2023-04-02T21:21:12;4.40;99.90
8436;DHT22;4255;48.730;9.156;2023-04-02T21:23:39;4.50;99.90
8436;DHT22;4255;48.730;9.156;2023-04-02T21:26:07;4.10;99.90
8436;DHT22;4255;48.730;9.156;2023-04-02T21:28:34;4.10;99.90
8436;DHT22;4255;48.730;9.156;2023-04-02T21:31:05;4.20;99.90
8436;DHT22;4255;48.730;9.156;2023-04-02T21:33:34;4.30;99.90
8436;DHT22;4255;48.730;9.156;2023-04-02T21:36:13;4.20;99.90
8436;DHT22;4255;48.730;9.156;2023-04-02T21:38:47;4.20;99.90
8436;DHT22;4255;48.730;9.156;2023-04-02T21:41:19;4.10;99.90
8436;DHT22;4255;48.730;9.156;2023-04-02T21:43:45;4.20;99.90
8436;DHT22;4255;48.730;9.156;2023-04-02T21:46:13;4.30;99.90
8436;DHT22;4255;48.730;9.156;2023-04-02T21:48:40;4.30;99.90
8436;DHT22;4255;48.730;9.156;2023-04-02T21:51:11;4.40;99.90
8436;DHT22;4255;48.730;9.156;2023-04-02T21:53:38;4.30;99.90
8436;DHT22;4255;48.730;9.156;2023-04-02T21:56:07;4.20;99.90
8436;DHT22;4255;48.730;9.156;2023-04-02T21:58:34;4.30;99.90